Time;durP1;ratioP1;P1;durP2;ratioP2;P2;SDS_P1;SDS_P2;PMS_P1;PMS_P2;Temp;Humidity;BMP_temperature;BMP_pressure;BME280_temperature;BME280_humidity;BME280_pressure;Samples;Min_cycle;Max_cycle;Signal;HPM_P1;HPM_P2
2022/04/29 00:00:04;;;;;;;8.53;4.03;;;;;;;8.43;77.92;97275.09;4993933;28;20230;-68
2022/04/29 00:02:31;;;;;;;6.53;4.00;;;;;;;8.12;78.42;97284.00;4993076;28;20202;-68
2022/04/29 00:04:57;;;;;;;6.97;4.50;;;;;;;8.14;78.72;97274.22;4990012;28;20572;-68
2022/04/29 00:07:24;;;;;;;9.50;4.73;;;;;;;8.15;78.30;97275.91;4993803;28;20233;-68
2022/04/29 00:09:51;;;;;;;7.57;4.33;;;;;;;7.96;80.41;97270.59;4993314;28;20259;-68
2022/04/29 00:12:19;;;;;;;7.30;4.60;;;;;;;7.74;80.80;97275.22;4994894;28;20218;-68
2022/04/29 00:14:45;;;;;;;10.67;4.90;;;;;;;7.56;82.53;97258.47;4996886;28;20202;-68
2022/04/29 00:17:12;;;;;;;10.83;5.10;;;;;;;7.76;82.39;97262.81;4996703;28;20234;-68
2022/04/29 00:19:39;;;;;;;11.60;5.20;;;;;;;7.97;79.29;97257.31;4996224;28;20239;-68
2022/04/29 00:22:05;;;;;;;9.10;4.73;;;;;;;8.01;78.43;97260.53;4996927;28;20210;-68
2022/04/29 00:24:31;;;;;;;10.17;4.83;;;;;;;7.98;78.98;97263.41;4996510;28;20206;-68
2022/04/29 00:26:59;;;;;;;6.93;4.00;;;;;;;7.67;79.38;97269.69;4996969;28;20311;-68
2022/04/29 00:29:26;;;;;;;8.20;5.10;;;;;;;7.80;79.44;97270.28;4996679;28;20226;-68
2022/04/29 00:31:52;;;;;;;6.73;4.00;;;;;;;7.55;78.95;97281.28;4996244;28;20607;-67
2022/04/29 00:34:19;;;;;;;9.53;4.70;;;;;;;7.57;80.36;97268.00;4996194;28;20218;-68
2022/04/29 00:36:46;;;;;;;7.93;5.10;;;;;;;7.69;81.62;97262.53;4996341;28;20230;-68
2022/04/29 00:39:12;;;;;;;9.23;4.90;;;;;;;7.72;78.41;97267.50;4996070;28;20236;-68
2022/04/29 00:41:39;;;;;;;8.40;4.83;;;;;;;7.37;80.66;97267.13;4996314;28;20615;-68
2022/04/29 00:44:08;;;;;;;8.33;5.00;;;;;;;7.75;80.99;97261.16;4995723;28;20214;-68
2022/04/29 00:46:37;;;;;;;10.27;5.37;;;;;;;7.83;80.82;97254.28;4996264;28;20214;-69
2022/04/29 00:49:04;;;;;;;11.03;5.57;;;;;;;7.91;80.63;97257.88;4996597;28;20230;-68
2022/04/29 00:51:31;;;;;;;10.93;5.40;;;;;;;7.75;79.85;97254.13;4995784;28;20678;-70
2022/04/29 00:53:58;;;;;;;8.80;5.10;;;;;;;7.74;80.55;97247.22;4995253;28;20289;-70
2022/04/29 00:56:27;;;;;;;8.87;5.30;;;;;;;7.74;80.42;97249.84;4996454;28;20226;-70
2022/04/29 00:59:01;;;;;;;10.40;4.90;;;;;;;7.80;79.36;97246.66;4996315;28;20222;-70
2022/04/29 01:01:32;;;;;;;11.37;5.00;;;;;;;7.71;79.77;97239.59;4996967;28;20221;-70
2022/04/29 01:04:01;;;;;;;9.30;5.00;;;;;;;7.18;81.96;97244.41;4991723;28;20206;-69
2022/04/29 01:06:27;;;;;;;10.30;4.70;;;;;;;7.33;80.62;97239.53;4996694;28;20203;-68
2022/04/29 01:08:54;;;;;;;9.13;4.90;;;;;;;7.13;79.91;97242.22;4996140;28;20227;-69
2022/04/29 01:11:24;;;;;;;8.13;4.47;;;;;;;7.06;80.03;97238.44;4995577;28;20557;-69
2022/04/29 01:13:51;;;;;;;7.20;4.43;;;;;;;7.08;80.39;97233.91;4995398;28;20207;-70
2022/04/29 01:16:18;;;;;;;10.53;5.13;;;;;;;6.65;84.50;97235.06;4996130;28;20233;-70
2022/04/29 01:18:48;;;;;;;11.73;5.17;;;;;;;7.12;83.91;97231.84;4996009;28;20234;-69
2022/04/29 01:21:14;;;;;;;9.53;4.83;;;;;;;7.04;81.98;97223.81;4995794;28;20280;-70
2022/04/29 01:23:43;;;;;;;9.03;5.23;;;;;;;7.22;82.17;97220.44;4993560;28;20206;-70
2022/04/29 01:26:14;;;;;;;10.83;5.23;;;;;;;7.26;82.32;97213.97;4995605;28;20299;-70
2022/04/29 01:28:43;;;;;;;10.20;5.57;;;;;;;7.37;82.66;97214.69;4995651;28;20210;-70
2022/04/29 01:31:14;;;;;;;13.27;5.33;;;;;;;7.52;82.27;97210.75;4994944;28;20706;-69
2022/04/29 01:33:42;;;;;;;9.57;5.37;;;;;;;7.29;80.86;97211.91;4994732;28;20289;-70
2022/04/29 01:36:09;;;;;;;10.80;5.20;;;;;;;7.02;81.77;97210.84;4995373;28;20350;-69
2022/04/29 01:38:35;;;;;;;8.37;4.67;;;;;;;7.05;81.90;97212.38;4995312;28;20724;-69
2022/04/29 01:41:04;;;;;;;12.20;5.30;;;;;;;7.22;82.52;97204.72;4995572;28;20206;-70
2022/04/29 01:43:31;;;;;;;9.23;4.50;;;;;;;6.97;81.52;97204.34;4995261;28;20734;-68
2022/04/29 01:45:58;;;;;;;9.47;5.17;;;;;;;7.02;81.20;97213.47;4995561;28;20637;-67
2022/04/29 01:48:24;;;;;;;11.07;4.97;;;;;;;7.17;80.32;97216.56;4995217;28;20207;-68
2022/04/29 01:50:51;;;;;;;15.53;5.43;;;;;;;7.22;80.74;97212.56;4995390;28;20210;-68
2022/04/29 01:53:18;;;;;;;8.57;5.00;;;;;;;7.10;80.94;97216.25;4995101;28;20199;-67
2022/04/29 01:55:44;;;;;;;9.17;5.33;;;;;;;6.89;82.65;97220.72;4995468;28;20214;-67
2022/04/29 01:58:12;;;;;;;12.63;5.43;;;;;;;7.25;81.44;97206.25;4995540;28;20209;-67
2022/04/29 02:00:38;;;;;;;8.67;5.17;;;;;;;7.04;80.78;97205.47;4995256;28;20237;-69
2022/04/29 02:03:05;;;;;;;11.00;5.60;;;;;;;6.91;82.93;97216.19;4991909;28;21016;-69
2022/04/29 02:05:32;;;;;;;12.23;5.67;;;;;;;6.92;83.38;97204.72;4995109;28;20670;-69
2022/04/29 02:08:00;;;;;;;10.20;5.37;;;;;;;7.08;82.70;97199.03;4995477;28;20202;-69
2022/04/29 02:10:26;;;;;;;12.97;5.57;;;;;;;7.04;81.39;97198.44;4995346;28;20333;-70
2022/04/29 02:12:53;;;;;;;11.17;5.63;;;;;;;6.90;81.71;97182.25;4994299;28;20210;-70
2022/04/29 02:15:21;;;;;;;11.07;5.30;;;;;;;7.12;82.21;97188.13;4995377;28;20306;-69
2022/04/29 02:17:47;;;;;;;7.80;5.00;;;;;;;7.02;81.26;97181.19;4994653;28;20290;-69
2022/04/29 02:20:14;;;;;;;11.40;5.40;;;;;;;7.07;81.21;97181.63;4994343;28;20223;-69
2022/04/29 02:22:40;;;;;;;8.13;4.83;;;;;;;6.84;82.47;97182.78;4994563;28;20203;-69
2022/04/29 02:25:07;;;;;;;10.30;4.70;;;;;;;6.43;80.45;97182.84;4995889;28;20252;-70
2022/04/29 02:27:35;;;;;;;10.17;5.10;;;;;;;6.64;80.80;97190.69;4994526;28;20209;-69
2022/04/29 02:30:02;;;;;;;12.80;5.73;;;;;;;6.69;80.67;97194.56;4994247;28;20332;-69
2022/04/29 02:32:31;;;;;;;13.87;5.30;;;;;;;6.91;81.21;97181.28;4994704;28;20217;-69
2022/04/29 02:35:00;;;;;;;10.13;4.97;;;;;;;6.55;82.35;97191.47;4990836;28;20210;-69
2022/04/29 02:37:27;;;;;;;11.40;5.50;;;;;;;6.78;81.14;97188.53;4994282;28;20256;-70
2022/04/29 02:39:53;;;;;;;8.07;4.70;;;;;;;6.53;80.68;97195.97;4994610;28;20234;-69
2022/04/29 02:42:20;;;;;;;9.70;5.03;;;;;;;6.51;79.01;97192.69;4994535;28;20247;-70
2022/04/29 02:44:47;;;;;;;10.17;4.77;;;;;;;6.58;80.32;97197.28;4994732;28;20214;-69
2022/04/29 02:47:13;;;;;;;9.17;4.77;;;;;;;6.29;82.14;97196.25;4994926;28;20206;-69
2022/04/29 02:49:43;;;;;;;10.10;5.17;;;;;;;6.64;81.85;97191.50;4994563;28;20226;-69
2022/04/29 02:52:12;;;;;;;8.00;4.47;;;;;;;6.35;80.75;97190.53;4994578;28;20211;-69
2022/04/29 02:54:40;;;;;;;9.60;5.53;;;;;;;6.19;81.37;97184.88;4994473;28;20574;-69
2022/04/29 02:57:06;;;;;;;10.03;5.33;;;;;;;6.44;81.22;97188.91;4994715;28;20226;-69
2022/04/29 02:59:33;;;;;;;12.93;5.90;;;;;;;6.28;81.43;97186.75;4994197;28;20230;-69
2022/04/29 03:02:00;;;;;;;21.63;6.10;;;;;;;6.34;80.98;97188.00;4994055;28;20651;-69
2022/04/29 03:04:26;;;;;;;6.63;4.77;;;;;;;6.25;80.51;97184.38;4991304;28;21043;-69
2022/04/29 03:06:54;;;;;;;11.43;5.20;;;;;;;6.35;82.17;97184.44;4994441;28;20206;-69
2022/04/29 03:09:21;;;;;;;9.23;5.27;;;;;;;6.24;81.61;97185.34;4994038;28;20234;-69
2022/04/29 03:11:47;;;;;;;11.73;5.40;;;;;;;6.27;81.71;97181.63;4994480;28;20243;-69
2022/04/29 03:14:14;;;;;;;9.13;5.17;;;;;;;6.27;80.48;97181.63;4993659;28;20870;-69
2022/04/29 03:16:40;;;;;;;7.90;4.73;;;;;;;6.35;80.41;97185.28;4994169;28;20230;-69
2022/04/29 03:19:08;;;;;;;9.93;5.13;;;;;;;6.23;81.66;97183.66;4994114;28;20245;-69
2022/04/29 03:21:35;;;;;;;9.27;5.60;;;;;;;6.17;80.62;97186.81;4994315;28;20206;-70
2022/04/29 03:24:03;;;;;;;8.23;4.83;;;;;;;6.44;79.99;97174.03;4993253;28;20202;-69
2022/04/29 03:26:30;;;;;;;8.47;5.00;;;;;;;6.41;79.73;97179.50;4994079;28;20244;-69
2022/04/29 03:28:56;;;;;;;9.30;5.13;;;;;;;5.81;80.81;97182.97;4993887;28;20230;-69
2022/04/29 03:31:23;;;;;;;10.33;5.07;;;;;;;5.97;81.07;97175.50;4993789;28;20214;-69
2022/04/29 03:33:49;;;;;;;10.03;5.50;;;;;;;6.03;82.75;97172.38;4993328;28;20229;-69
2022/04/29 03:36:16;;;;;;;10.67;5.20;;;;;;;5.94;81.94;97178.38;4995011;28;20215;-69
2022/04/29 03:38:42;;;;;;;10.63;5.70;;;;;;;5.92;83.35;97178.50;4994189;28;20961;-70
2022/04/29 03:41:11;;;;;;;10.53;5.97;;;;;;;6.27;83.51;97168.56;4993518;28;20214;-69
2022/04/29 03:43:38;;;;;;;8.97;5.43;;;;;;;5.79;81.59;97171.78;4992906;28;20203;-70
2022/04/29 03:46:05;;;;;;;10.53;5.47;;;;;;;6.04;79.58;97175.69;4994914;28;20209;-69
2022/04/29 03:51:13;;;;;;;12.23;5.70;;;;;;;5.98;82.72;97162.28;5095341;27;20555;-68
2022/04/29 03:53:39;;;;;;;14.17;5.80;;;;;;;6.08;80.94;97161.41;5094362;28;20207;-68
2022/04/29 03:56:06;;;;;;;10.97;5.87;;;;;;;5.99;81.17;97163.13;5095019;28;20225;-68
2022/04/29 03:58:32;;;;;;;10.20;5.37;;;;;;;5.94;81.67;97160.88;5094656;28;20207;-68
2022/04/29 04:00:59;;;;;;;9.13;5.00;;;;;;;5.95;81.01;97159.94;5094550;28;20222;-68
2022/04/29 04:03:25;;;;;;;9.93;5.00;;;;;;;6.05;80.40;97156.41;5091252;28;20199;-68
2022/04/29 04:08:35;;;;;;;10.33;5.57;;;;;;;5.86;81.29;97149.41;5094190;28;20345;-68
2022/04/29 04:11:02;;;;;;;9.47;5.77;;;;;;;5.52;82.80;97155.69;5094016;28;20242;-68
2022/04/29 04:13:28;;;;;;;10.70;5.57;;;;;;;5.61;81.97;97154.94;5093368;28;20203;-68
2022/04/29 04:15:55;;;;;;;15.17;5.33;;;;;;;5.48;81.54;97157.72;5094534;28;20199;-68
2022/04/29 04:18:21;;;;;;;20.50;6.13;;;;;;;5.58;83.13;97160.44;5093941;28;20211;-68
2022/04/29 04:20:48;;;;;;;15.27;6.23;;;;;;;5.64;83.06;97162.56;5094041;28;20223;-68
2022/04/29 04:23:15;;;;;;;13.17;5.67;;;;;;;5.76;83.65;97158.97;5093869;28;20211;-68
2022/04/29 04:25:42;;;;;;;12.53;6.17;;;;;;;6.08;83.31;97161.41;5094182;28;20206;-68
2022/04/29 04:28:13;;;;;;;10.57;5.83;;;;;;;5.84;81.64;97159.16;5094361;28;20210;-68
2022/04/29 04:30:39;;;;;;;11.97;6.30;;;;;;;5.99;82.30;97165.75;5093606;28;20231;-68
2022/04/29 04:33:06;;;;;;;12.07;6.37;;;;;;;6.05;82.41;97169.50;5093861;28;20214;-68
2022/04/29 04:35:32;;;;;;;11.67;6.33;;;;;;;6.21;82.77;97169.06;5093504;28;20214;-68
2022/04/29 04:37:59;;;;;;;14.73;7.40;;;;;;;6.34;83.46;97167.91;5094714;28;20207;-68
2022/04/29 04:40:25;;;;;;;15.23;7.30;;;;;;;6.26;83.86;97178.19;5093978;28;20246;-68
2022/04/29 04:42:53;;;;;;;14.40;7.67;;;;;;;6.63;83.00;97178.53;5092832;28;20195;-68
2022/04/29 04:45:20;;;;;;;18.57;7.07;;;;;;;6.43;82.23;97182.84;5093604;28;20227;-67
2022/04/29 04:47:46;;;;;;;13.37;6.73;;;;;;;6.28;82.91;97183.31;5094937;28;20293;-68
2022/04/29 04:50:13;;;;;;;18.43;7.17;;;;;;;6.52;82.91;97184.69;5092806;28;20234;-68
2022/04/29 04:52:43;;;;;;;14.60;7.70;;;;;;;6.79;84.38;97177.09;5091957;28;20210;-68
2022/04/29 04:55:11;;;;;;;12.40;6.70;;;;;;;6.82;83.55;97184.69;5093278;28;20238;-68
2022/04/29 04:57:38;;;;;;;13.17;7.30;;;;;;;6.87;84.06;97178.13;5093488;28;20207;-68
2022/04/29 05:00:07;;;;;;;24.77;8.17;;;;;;;7.17;85.07;97185.13;5093419;28;20239;-68
2022/04/29 05:02:33;;;;;;;16.10;7.93;;;;;;;6.94;85.93;97184.47;5079478;28;20664;-68
2022/04/29 05:05:00;;;;;;;13.70;8.00;;;;;;;7.29;85.47;97179.59;5076422;28;20668;-68
2022/04/29 05:07:26;;;;;;;16.67;7.63;;;;;;;7.50;84.85;97173.31;5079833;28;20207;-68
2022/04/29 05:09:53;;;;;;;20.03;8.53;;;;;;;7.66;84.81;97178.03;5080046;28;20231;-68
2022/04/29 05:12:20;;;;;;;15.50;8.37;;;;;;;7.77;84.80;97186.59;5078787;28;20200;-68
2022/04/29 05:14:46;;;;;;;18.60;9.13;;;;;;;7.91;85.26;97178.31;5080138;28;20204;-68
2022/04/29 05:17:14;;;;;;;16.87;9.20;;;;;;;8.36;84.95;97180.22;5080150;28;20206;-68
2022/04/29 05:19:40;;;;;;;13.23;7.57;;;;;;;8.29;84.82;97183.59;5079887;28;20226;-68
2022/04/29 05:22:07;;;;;;;14.70;7.97;;;;;;;8.36;84.55;97188.13;5079782;28;20207;-68
2022/04/29 05:24:33;;;;;;;21.30;8.60;;;;;;;8.44;84.89;97185.63;5079094;28;20226;-68
2022/04/29 05:27:01;;;;;;;19.90;9.77;;;;;;;8.63;85.36;97181.16;5079258;28;20628;-68
2022/04/29 05:29:27;;;;;;;21.07;9.80;;;;;;;8.55;86.48;97193.34;5079392;28;20231;-68
2022/04/29 05:31:54;;;;;;;18.33;9.63;;;;;;;8.83;87.29;97188.00;5079404;28;20206;-68
2022/04/29 05:34:22;;;;;;;21.37;9.67;;;;;;;9.24;86.24;97185.78;5079362;28;20211;-68
2022/04/29 05:36:48;;;;;;;17.53;9.67;;;;;;;9.17;86.56;97186.50;5078990;28;20572;-68
2022/04/29 05:42:18;;;;;;;18.23;10.53;;;;;;;9.58;86.46;97180.72;5079219;28;20214;-68
2022/04/29 05:44:45;;;;;;;23.43;9.77;;;;;;;9.54;87.22;97182.00;5079202;28;20223;-68
2022/04/29 05:47:12;;;;;;;20.10;10.60;;;;;;;9.67;86.59;97182.47;5079207;28;20200;-68
2022/04/29 05:49:40;;;;;;;19.53;10.50;;;;;;;10.07;88.12;97181.06;5078922;28;20235;-68
2022/04/29 05:52:08;;;;;;;21.07;11.67;;;;;;;10.29;84.96;97176.19;5078631;28;20211;-68
2022/04/29 05:54:35;;;;;;;24.57;11.13;;;;;;;10.23;84.67;97182.03;5078955;28;20207;-68
2022/04/29 05:57:04;;;;;;;20.20;11.27;;;;;;;10.20;86.66;97186.81;5076549;28;20195;-68
2022/04/29 05:59:31;;;;;;;20.13;11.90;;;;;;;10.13;85.90;97186.59;5077683;28;20223;-68
2022/04/29 06:01:58;;;;;;;22.73;11.87;;;;;;;10.46;85.55;97188.50;5077985;28;20294;-68
2022/04/29 06:04:25;;;;;;;20.37;11.23;;;;;;;10.86;83.52;97186.97;5072677;28;20192;-69
2022/04/29 06:06:53;;;;;;;25.20;12.63;;;;;;;10.76;82.40;97185.44;5078229;28;20215;-69
2022/04/29 06:09:19;;;;;;;27.13;11.40;;;;;;;10.88;82.18;97189.44;5078119;28;20251;-69
2022/04/29 06:11:46;;;;;;;21.00;11.20;;;;;;;10.75;85.23;97195.13;5078418;28;20232;-69
2022/04/29 06:14:13;;;;;;;24.23;10.73;;;;;;;10.99;82.23;97182.91;5075480;28;20203;-68
2022/04/29 06:16:39;;;;;;;22.00;11.27;;;;;;;10.87;82.30;97196.53;5076955;28;20203;-68
2022/04/29 06:19:06;;;;;;;19.50;10.73;;;;;;;10.91;81.53;97189.13;5076568;28;20224;-68
2022/04/29 06:21:32;;;;;;;22.13;10.90;;;;;;;11.26;80.03;97185.34;5077352;28;20196;-69
2022/04/29 06:24:00;;;;;;;23.03;10.30;;;;;;;11.69;77.84;97175.47;5077074;28;20195;-69
2022/04/29 06:26:26;;;;;;;20.77;10.10;;;;;;;11.60;78.21;97179.09;5077760;28;20692;-69
2022/04/29 06:28:53;;;;;;;24.13;11.30;;;;;;;11.67;79.06;97179.28;5077667;28;20662;-69
2022/04/29 06:31:19;;;;;;;19.53;10.53;;;;;;;11.65;80.19;97187.34;5077123;28;20226;-69
2022/04/29 06:33:46;;;;;;;16.90;9.87;;;;;;;11.50;80.32;97179.41;5074103;28;20206;-69
2022/04/29 06:36:13;;;;;;;20.43;10.73;;;;;;;11.96;79.08;97182.31;5077849;28;20219;-68
2022/04/29 06:38:39;;;;;;;19.00;10.53;;;;;;;12.20;79.31;97183.16;5077481;28;20587;-69
2022/04/29 06:41:07;;;;;;;19.50;10.47;;;;;;;12.44;78.08;97176.06;5076350;28;20720;-69
2022/04/29 06:43:34;;;;;;;17.43;9.93;;;;;;;12.44;75.93;97180.53;5075991;28;20450;-69
2022/04/29 06:46:00;;;;;;;16.47;9.53;;;;;;;12.38;77.44;97183.84;5077114;28;20211;-69
2022/04/29 06:48:27;;;;;;;20.77;9.63;;;;;;;12.72;74.46;97187.97;5076678;28;20679;-69
2022/04/29 06:50:53;;;;;;;21.80;10.30;;;;;;;12.78;72.79;97184.66;5077173;28;20250;-69
2022/04/29 06:53:20;;;;;;;15.47;8.63;;;;;;;12.88;73.92;97186.16;5075902;28;20207;-69
2022/04/29 06:55:47;;;;;;;24.03;9.70;;;;;;;12.87;75.54;97188.97;5077278;28;20710;-69
2022/04/29 06:58:15;;;;;;;19.27;9.60;;;;;;;13.35;73.46;97184.34;5077688;28;20559;-69
2022/04/29 07:00:42;;;;;;;16.47;9.17;;;;;;;13.08;71.67;97183.97;5077203;28;20230;-69
2022/04/29 07:03:09;;;;;;;15.57;8.80;;;;;;;13.05;71.58;97190.41;5073005;28;20204;-69
2022/04/29 07:05:37;;;;;;;21.07;9.37;;;;;;;13.46;73.65;97182.16;5077082;28;20200;-69
2022/04/29 07:08:04;;;;;;;17.50;8.63;;;;;;;13.63;73.86;97182.91;5077264;28;20226;-69
2022/04/29 07:10:31;;;;;;;17.10;9.77;;;;;;;13.78;72.22;97184.66;5076287;28;20224;-69
2022/04/29 07:12:57;;;;;;;14.68;9.07;;;;;;;13.76;71.29;97180.53;5076244;28;20474;-69
2022/04/29 07:15:25;;;;;;;15.18;9.07;;;;;;;14.01;71.68;97181.06;5076703;28;20660;-69
2022/04/29 07:17:52;;;;;;;13.07;7.87;;;;;;;14.01;69.52;97185.50;5077404;28;20663;-69
2022/04/29 07:20:19;;;;;;;13.87;7.40;;;;;;;13.98;66.79;97183.22;5076338;28;20882;-69
2022/04/29 07:22:45;;;;;;;14.60;7.10;;;;;;;13.94;66.25;97179.28;5076608;28;20231;-69
2022/04/29 07:25:13;;;;;;;15.45;7.32;;;;;;;14.22;65.18;97180.47;5076340;28;20208;-69
2022/04/29 07:27:40;;;;;;;12.93;7.40;;;;;;;14.16;66.20;97178.50;5076731;28;20203;-69
2022/04/29 07:30:10;;;;;;;13.68;6.88;;;;;;;14.40;66.57;97178.34;5076339;28;20220;-69
2022/04/29 07:32:38;;;;;;;13.10;7.63;;;;;;;14.68;63.10;97175.75;5075634;28;20390;-69
2022/04/29 07:43:17;;;;;;;14.65;7.40;;;;;;;15.16;64.65;97167.31;5075343;28;20282;-69
2022/04/29 07:45:43;;;;;;;13.75;8.20;;;;;;;15.39;63.68;97155.63;5076254;28;20370;-69
2022/04/29 07:48:11;;;;;;;13.27;7.75;;;;;;;15.49;62.95;97147.34;5076706;28;20699;-69
2022/04/29 07:50:39;;;;;;;15.48;7.00;;;;;;;15.47;62.60;97150.19;5075782;28;20634;-69
2022/04/29 07:53:06;;;;;;;12.30;6.90;;;;;;;15.67;61.04;97150.44;5076091;28;20211;-69
2022/04/29 07:55:32;;;;;;;10.82;6.43;;;;;;;15.64;59.80;97146.31;5076180;28;20326;-69
2022/04/29 07:57:59;;;;;;;13.57;6.90;;;;;;;15.55;63.71;97142.13;5076946;28;20200;-69
2022/04/29 08:00:25;;;;;;;12.05;7.10;;;;;;;15.51;65.91;97146.16;5076196;28;20646;-69
2022/04/29 08:02:52;;;;;;;17.13;6.97;;;;;;;15.34;63.09;97139.41;5073998;28;20316;-69
2022/04/29 08:05:20;;;;;;;11.32;7.15;;;;;;;15.77;64.96;97140.34;5075741;28;20207;-69
2022/04/29 08:07:47;;;;;;;12.50;7.22;;;;;;;15.94;62.30;97138.09;5076453;28;20210;-69
2022/04/29 08:10:14;;;;;;;11.82;7.18;;;;;;;15.84;59.74;97133.28;5076180;28;20223;-69
2022/04/29 08:12:40;;;;;;;14.43;6.30;;;;;;;15.97;58.07;97132.44;5075632;28;20199;-69
2022/04/29 08:15:09;;;;;;;11.07;6.07;;;;;;;16.38;58.80;97132.63;5076054;28;20225;-69
2022/04/29 08:17:37;;;;;;;10.95;6.68;;;;;;;16.38;62.85;97128.16;5076150;28;20743;-69
2022/04/29 08:20:05;;;;;;;13.48;7.38;;;;;;;16.69;63.31;97117.97;5076222;28;20494;-69
2022/04/29 08:22:33;;;;;;;9.02;5.82;;;;;;;16.45;57.24;97121.03;5075233;28;20332;-69
2022/04/29 08:25:00;;;;;;;18.88;7.35;;;;;;;16.50;62.12;97118.63;5076019;28;20200;-69
2022/04/29 08:27:28;;;;;;;9.00;4.80;;;;;;;16.99;49.95;97106.91;5075599;28;20805;-69
2022/04/29 08:29:56;;;;;;;7.85;4.32;;;;;;;17.31;50.46;97108.97;5076045;28;20313;-69
2022/04/29 08:32:22;;;;;;;8.93;4.13;;;;;;;17.53;46.20;97110.53;5075075;28;20234;-69
2022/04/29 08:34:49;;;;;;;8.30;4.35;;;;;;;17.36;46.79;97115.38;5076358;28;20762;-69
2022/04/29 08:37:15;;;;;;;6.55;4.15;;;;;;;17.62;45.18;97107.47;5077760;28;20203;-69
2022/04/29 08:39:43;;;;;;;7.90;3.50;;;;;;;17.90;41.43;97110.88;5080287;28;20612;-69
2022/04/29 08:42:11;;;;;;;6.60;4.05;;;;;;;17.94;42.12;97112.09;5079752;28;20207;-69
2022/04/29 08:44:41;;;;;;;6.88;4.05;;;;;;;18.07;44.42;97106.78;5079098;28;20289;-69
2022/04/29 08:47:08;;;;;;;8.52;4.20;;;;;;;17.99;43.67;97112.31;5079200;28;20229;-69
2022/04/29 08:49:36;;;;;;;5.45;3.30;;;;;;;17.87;39.80;97111.25;5080357;28;20658;-69
2022/04/29 08:52:02;;;;;;;6.88;3.90;;;;;;;17.92;43.60;97124.81;5079535;28;20216;-69
2022/04/29 09:00:04;;;;;;;5.65;3.83;;;;;;;18.24;41.06;97108.94;5079590;28;20591;-69
2022/04/29 09:02:36;;;;;;;7.80;3.78;;;;;;;18.43;39.33;97114.28;5078482;28;20207;-70
2022/04/29 09:05:03;;;;;;;6.25;3.58;;;;;;;18.72;39.63;97107.72;5076045;28;20575;-69
2022/04/29 09:07:52;;;;;;;5.30;3.30;;;;;;;18.94;37.90;97110.78;5078964;28;20208;-70
2022/04/29 09:10:18;;;;;;;5.32;3.63;;;;;;;18.50;38.50;97108.94;5079397;28;20312;-69
2022/04/29 09:12:46;;;;;;;6.88;4.45;;;;;;;18.09;40.34;97105.56;5078454;28;20224;-69
2022/04/29 09:15:14;;;;;;;8.45;4.38;;;;;;;17.46;40.36;97099.81;5079205;28;20207;-69
2022/04/29 09:17:44;;;;;;;7.50;3.63;;;;;;;17.43;40.88;97102.06;5078520;28;20688;-69
2022/04/29 09:20:15;;;;;;;6.15;3.75;;;;;;;17.71;40.44;97100.94;5078949;28;20230;-69
2022/04/29 09:22:46;;;;;;;10.57;4.20;;;;;;;17.93;40.93;97099.78;5078719;28;20200;-70
2022/04/29 09:25:13;;;;;;;6.40;4.07;;;;;;;17.97;39.21;97103.69;5079354;28;20200;-69
2022/04/29 09:27:56;;;;;;;6.85;3.72;;;;;;;18.91;41.72;97097.00;5079862;28;20211;-69
2022/04/29 09:30:38;;;;;;;7.00;3.95;;;;;;;19.22;41.88;97087.31;5077473;28;20594;-70
2022/04/29 09:33:05;;;;;;;8.05;3.90;;;;;;;18.68;39.52;97093.94;5076604;28;20239;-69
2022/04/29 09:35:36;;;;;;;6.40;3.30;;;;;;;19.61;40.16;97095.19;5077842;28;20200;-70
2022/04/29 09:40:47;;;;;;;10.27;5.05;;;;;;;19.45;38.42;97093.00;5077911;28;20234;-69
2022/04/29 09:43:15;;;;;;;6.65;3.88;;;;;;;19.81;39.07;97085.25;5076685;28;20204;-69
2022/04/29 09:45:42;;;;;;;9.02;4.50;;;;;;;19.78;39.09;97086.50;5077910;28;20200;-69
2022/04/29 09:48:10;;;;;;;6.53;3.70;;;;;;;20.14;40.08;97073.34;5077121;28;20204;-69
2022/04/29 09:50:47;;;;;;;6.80;3.85;;;;;;;20.18;39.60;97082.56;5077625;28;20758;-69
2022/04/29 09:53:18;;;;;;;10.02;3.83;;;;;;;19.73;38.98;97086.31;5077242;28;20235;-69
2022/04/29 09:56:05;;;;;;;5.22;3.50;;;;;;;19.28;39.89;97077.63;5077691;28;20583;-69
2022/04/29 09:58:33;;;;;;;5.78;3.63;;;;;;;19.45;39.41;97076.97;5076830;28;20614;-69
2022/04/29 10:01:04;;;;;;;5.00;3.53;;;;;;;19.40;41.23;97075.94;5077085;28;20207;-69
2022/04/29 10:03:30;;;;;;;7.45;4.63;;;;;;;18.93;43.44;97071.72;5072799;28;20211;-69
2022/04/29 10:06:00;;;;;;;9.55;4.35;;;;;;;19.04;38.43;97064.91;5076658;28;20599;-69
2022/04/29 10:08:27;;;;;;;8.70;4.40;;;;;;;19.09;39.16;97067.81;5075876;28;20309;-69
2022/04/29 10:10:55;;;;;;;7.15;3.92;;;;;;;18.88;40.97;97054.69;5076814;28;20219;-69
2022/04/29 10:13:24;;;;;;;6.93;4.18;;;;;;;18.96;41.44;97062.47;5076242;28;20199;-68
2022/04/29 10:15:53;;;;;;;7.97;4.30;;;;;;;19.13;41.01;97047.66;5075491;28;20304;-69
2022/04/29 10:21:17;;;;;;;9.00;4.28;;;;;;;19.18;41.57;97047.84;5074171;28;20214;-69
2022/04/29 10:23:48;;;;;;;9.57;4.45;;;;;;;19.21;42.04;97052.78;5076352;28;20207;-69
2022/04/29 10:26:16;;;;;;;7.32;4.20;;;;;;;19.32;42.35;97052.13;5077077;28;20299;-69
2022/04/29 10:28:43;;;;;;;8.35;4.45;;;;;;;19.16;42.52;97041.91;5076724;28;20305;-68
2022/04/29 10:31:17;;;;;;;7.25;3.78;;;;;;;19.95;43.72;97044.84;5076370;28;20215;-69
2022/04/29 10:33:44;;;;;;;6.18;3.70;;;;;;;20.25;41.50;97043.19;5076918;28;20210;-69
2022/04/29 10:36:14;;;;;;;6.03;3.80;;;;;;;19.88;38.17;97038.69;5076860;28;20235;-69
2022/04/29 10:38:43;;;;;;;5.93;3.50;;;;;;;19.75;39.86;97028.06;5076651;28;20336;-68
2022/04/29 10:41:13;;;;;;;6.60;3.63;;;;;;;20.02;38.09;97023.41;5076800;28;20587;-69
2022/04/29 10:43:40;;;;;;;7.28;4.07;;;;;;;19.83;39.15;97037.69;5076836;28;20265;-68
2022/04/29 10:46:30;;;;;;;6.63;4.00;;;;;;;20.12;36.58;97034.44;5076716;28;20207;-68
2022/04/29 10:48:57;;;;;;;7.45;4.22;;;;;;;19.45;38.89;97028.00;5068762;28;20220;-69
2022/04/29 10:51:47;;;;;;;6.43;3.92;;;;;;;19.82;39.84;97031.53;5076098;28;20571;-69
2022/04/29 10:54:14;;;;;;;10.50;4.60;;;;;;;19.64;37.44;97030.59;5076194;28;20257;-69
2022/04/29 10:56:40;;;;;;;15.98;7.68;;;;;;;19.82;38.25;97023.50;5075608;28;20210;-69
2022/04/29 10:59:21;;;;;;;11.80;5.97;;;;;;;19.88;36.78;97028.00;5075169;28;20227;-69
2022/04/29 11:02:06;;;;;;;14.27;5.93;;;;;;;19.88;39.61;97030.69;5075524;28;20199;-68
2022/04/29 11:04:45;;;;;;;24.88;11.95;;;;;;;20.05;40.26;97029.16;5074816;28;20235;-69
2022/04/29 11:07:42;;;;;;;33.78;13.73;;;;;;;20.24;36.72;97023.66;5075332;28;20207;-68
2022/04/29 11:10:10;;;;;;;7.95;4.43;;;;;;;19.71;39.07;97021.50;5068739;28;20236;-69
2022/04/29 11:12:39;;;;;;;6.30;3.88;;;;;;;20.13;37.93;97014.69;5071985;28;20643;-69
2022/04/29 11:15:09;;;;;;;8.27;3.30;;;;;;;20.01;38.93;97009.22;5077621;28;20204;-69
2022/04/29 11:17:38;;;;;;;6.85;3.80;;;;;;;20.71;36.87;97009.66;5076987;28;20922;-69
2022/04/29 11:20:16;;;;;;;10.70;4.25;;;;;;;20.94;36.88;96999.13;5076934;28;20227;-69
2022/04/29 11:25:48;;;;;;;9.95;3.97;;;;;;;21.23;35.61;97003.75;5077174;28;20667;-69
2022/04/29 11:28:15;;;;;;;7.97;4.20;;;;;;;21.40;36.14;97002.91;5076178;28;20230;-69
2022/04/29 11:30:42;;;;;;;11.52;4.95;;;;;;;21.36;38.15;96993.69;5077181;28;20843;-69
2022/04/29 11:33:10;;;;;;;8.93;4.80;;;;;;;21.59;38.85;96999.19;5075530;28;20251;-69
2022/04/29 11:35:36;;;;;;;8.60;4.63;;;;;;;21.72;34.89;96997.13;5076011;28;21095;-69
2022/04/29 11:38:03;;;;;;;6.78;4.53;;;;;;;21.98;37.62;96988.69;5076745;28;20225;-69
2022/04/29 11:40:30;;;;;;;12.55;4.50;;;;;;;22.15;38.08;96985.13;5076396;28;20230;-69
2022/04/29 11:42:56;;;;;;;8.35;4.88;;;;;;;22.46;35.04;96976.78;5075075;28;20211;-69
2022/04/29 11:45:24;;;;;;;5.93;4.38;;;;;;;22.27;36.39;96977.13;5076830;28;20203;-69
2022/04/29 11:47:50;;;;;;;10.20;5.07;;;;;;;21.25;39.67;96982.91;5076218;28;20199;-69
2022/04/29 11:50:31;;;;;;;7.90;5.03;;;;;;;22.15;37.26;96978.94;5075767;28;20235;-69
2022/04/29 11:53:04;;;;;;;6.18;4.32;;;;;;;22.44;34.92;96970.84;5075774;28;20243;-69
2022/04/29 11:55:30;;;;;;;11.30;4.30;;;;;;;21.72;35.39;96978.34;5076939;28;20204;-69
2022/04/29 11:57:58;;;;;;;10.07;5.35;;;;;;;21.77;37.78;96969.63;5077220;28;20211;-68
2022/04/29 12:00:26;;;;;;;8.40;5.68;;;;;;;21.26;36.92;96971.13;5076585;28;20716;-68
2022/04/29 12:02:53;;;;;;;10.05;5.25;;;;;;;21.13;37.28;96963.22;5076430;28;20207;-69
2022/04/29 12:05:25;;;;;;;9.90;5.32;;;;;;;21.32;38.84;96965.69;5076254;28;20676;-69